Time;durP1;ratioP1;P1;durP2;ratioP2;P2;SDS_P1;SDS_P2;PMS_P1;PMS_P2;Temp;Humidity;BMP_temperature;BMP_pressure;BME280_temperature;BME280_humidity;BME280_pressure;Samples;Min_cycle;Max_cycle;Signal;HPM_P1;HPM_P2
2021/12/12 00:01:33;;;;;;;7.20;3.65;;;;;;;;;;12811854;23;20021;-87
2021/12/12 00:06:35;;;;;;;8.77;4.10;;;;;;;;;;12812874;23;20009;-87
2021/12/12 00:11:37;;;;;;;8.68;4.60;;;;;;;;;;12816694;23;20016;-86
2021/12/12 00:16:38;;;;;;;6.45;3.22;;;;;;;;;;12816323;23;20012;-87
2021/12/12 00:21:41;;;;;;;6.28;3.75;;;;;;;;;;12815430;23;20009;-87
2021/12/12 00:26:43;;;;;;;7.18;3.30;;;;;;;;;;12816513;23;20060;-86
2021/12/12 00:31:45;;;;;;;7.72;4.05;;;;;;;;;;12809990;23;20005;-87
2021/12/12 00:36:46;;;;;;;6.25;2.90;;;;;;;;;;12805982;23;20016;-86
2021/12/12 00:41:47;;;;;;;;;;;;;;;;;;12807234;23;20005;-87
2021/12/12 00:46:48;;;;;;;5.70;2.88;;;;;;;;;;12795045;23;20276;-87
2021/12/12 00:51:50;;;;;;;5.93;3.05;;;;;;;;;;12795211;23;20378;-87
2021/12/12 00:56:51;;;;;;;8.80;4.10;;;;;;;;;;12807359;23;20001;-87
2021/12/12 01:01:52;;;;;;;5.03;2.80;;;;;;;;;;12806044;23;19989;-86
2021/12/12 01:06:54;;;;;;;5.35;2.72;;;;;;;;;;12804008;23;20012;-86
2021/12/12 01:11:57;;;;;;;4.55;2.45;;;;;;;;;;12806758;23;20442;-86
2021/12/12 01:17:06;;;;;;;8.27;3.28;;;;;;;;;;12804956;23;20136;-86
2021/12/12 01:22:10;;;;;;;7.60;3.50;;;;;;;;;;12831303;23;20001;-86
2021/12/12 01:27:12;;;;;;;5.85;2.63;;;;;;;;;;12803827;23;20068;-87
2021/12/12 01:32:21;;;;;;;5.15;2.90;;;;;;;;;;12831574;23;20074;-86
2021/12/12 01:42:34;;;;;;;4.20;2.30;;;;;;;;;;12853604;23;20068;-86
2021/12/12 01:47:37;;;;;;;7.43;2.70;;;;;;;;;;12801566;23;20033;-88
2021/12/12 01:52:39;;;;;;;6.38;3.08;;;;;;;;;;12800316;23;20382;-86
2021/12/12 01:57:46;;;;;;;4.45;2.30;;;;;;;;;;12858431;23;20016;-85
2021/12/12 02:02:51;;;;;;;4.75;2.42;;;;;;;;;;12925714;23;19997;-86
2021/12/12 02:07:57;;;;;;;4.03;2.20;;;;;;;;;;12925167;23;20028;-86
2021/12/12 02:13:06;;;;;;;7.00;3.10;;;;;;;;;;12923182;23;20484;-86
2021/12/12 02:18:13;;;;;;;5.25;2.60;;;;;;;;;;12925165;23;20015;-86
2021/12/12 02:39:30;;;;;;;4.60;2.20;;;;;;;;;;12952881;23;20170;-85
2021/12/12 02:44:35;;;;;;;3.58;2.03;;;;;;;;;;12924357;23;20028;-85
2021/12/12 02:49:55;;;;;;;4.82;2.45;;;;;;;;;;12925531;23;20046;-86
2021/12/12 02:55:01;;;;;;;5.45;2.53;;;;;;;;;;12923976;23;20440;-85
2021/12/12 03:00:04;;;;;;;4.50;2.15;;;;;;;;;;12926159;23;20059;-85
2021/12/12 03:05:18;;;;;;;3.35;1.80;;;;;;;;;;12914347;23;20021;-85
2021/12/12 03:10:22;;;;;;;4.13;2.28;;;;;;;;;;12921392;22;20035;-86
2021/12/12 03:15:26;;;;;;;4.88;2.13;;;;;;;;;;12929062;23;20016;-88
2021/12/12 03:20:31;;;;;;;5.40;2.25;;;;;;;;;;12902882;23;20016;-88
2021/12/12 03:25:40;;;;;;;4.32;2.10;;;;;;;;;;12902614;23;20000;-88
2021/12/12 03:30:41;;;;;;;4.05;1.58;;;;;;;;;;12903171;23;20073;-88
2021/12/12 03:35:42;;;;;;;;;;;;;;;;;;12899561;23;20004;-88
2021/12/12 03:40:45;;;;;;;2.80;1.75;;;;;;;;;;12900211;23;19903;-88
2021/12/12 03:45:52;;;;;;;4.47;2.22;;;;;;;;;;12900421;23;20000;-88
2021/12/12 03:50:55;;;;;;;4.13;2.10;;;;;;;;;;12908043;23;20099;-88
2021/12/12 03:55:59;;;;;;;4.32;2.40;;;;;;;;;;12914600;23;20018;-87
2021/12/12 04:01:24;;;;;;;3.72;1.55;;;;;;;;;;12930175;23;20013;-86
2021/12/12 04:06:26;;;;;;;5.47;2.00;;;;;;;;;;12914846;23;20038;-88
2021/12/12 04:11:30;;;;;;;6.90;2.60;;;;;;;;;;12910580;23;20062;-87
2021/12/12 04:16:36;;;;;;;4.93;2.15;;;;;;;;;;12910163;23;20005;-87
2021/12/12 04:21:39;;;;;;;4.13;1.98;;;;;;;;;;12912850;23;20443;-87
2021/12/12 04:26:42;;;;;;;3.10;1.55;;;;;;;;;;12922075;23;20006;-88
2021/12/12 04:31:45;;;;;;;2.55;1.48;;;;;;;;;;12918551;23;20010;-87
2021/12/12 04:36:47;;;;;;;3.33;1.80;;;;;;;;;;12912323;23;20036;-88
2021/12/12 04:41:52;;;;;;;2.30;1.40;;;;;;;;;;12910174;23;20424;-86
2021/12/12 04:52:19;;;;;;;5.22;2.38;;;;;;;;;;12938721;23;20040;-87
2021/12/12 04:57:23;;;;;;;4.93;1.92;;;;;;;;;;12913339;23;20507;-87
2021/12/12 05:02:24;;;;;;;3.03;1.70;;;;;;;;;;12915957;23;20027;-87
2021/12/12 05:07:32;;;;;;;3.95;1.70;;;;;;;;;;12917288;23;20004;-87
2021/12/12 05:12:41;;;;;;;6.63;2.20;;;;;;;;;;12915586;23;20043;-86
2021/12/12 05:17:50;;;;;;;4.70;1.85;;;;;;;;;;12916988;23;20015;-86
2021/12/12 05:22:52;;;;;;;3.78;1.90;;;;;;;;;;12922644;23;20018;-86
2021/12/12 05:27:54;;;;;;;5.60;2.30;;;;;;;;;;12922352;23;20026;-85
2021/12/12 05:32:56;;;;;;;3.22;1.40;;;;;;;;;;12913012;23;20001;-86
2021/12/12 05:37:57;;;;;;;5.20;2.13;;;;;;;;;;12914124;23;20015;-85
2021/12/12 05:43:00;;;;;;;6.22;2.20;;;;;;;;;;12916405;23;20007;-85
2021/12/12 05:48:02;;;;;;;6.53;2.30;;;;;;;;;;12917139;23;20000;-86
2021/12/12 05:53:03;;;;;;;3.05;1.75;;;;;;;;;;12944046;23;20005;-85
2021/12/12 05:58:06;;;;;;;2.80;1.35;;;;;;;;;;12942481;23;20008;-86
2021/12/12 06:03:12;;;;;;;5.80;2.75;;;;;;;;;;12913635;23;20313;-87
2021/12/12 06:08:14;;;;;;;6.72;2.35;;;;;;;;;;12943972;23;19989;-85
2021/12/12 06:13:16;;;;;;;5.80;2.35;;;;;;;;;;12940520;23;20008;-85
2021/12/12 06:18:18;;;;;;;5.30;2.60;;;;;;;;;;12914515;23;20024;-85
2021/12/12 06:23:20;;;;;;;5.60;2.22;;;;;;;;;;12910731;23;20011;-85
2021/12/12 06:28:26;;;;;;;3.90;1.80;;;;;;;;;;12915078;23;20382;-85
2021/12/12 06:33:28;;;;;;;3.17;1.33;;;;;;;;;;12916796;23;20008;-85
2021/12/12 06:38:29;;;;;;;4.57;2.70;;;;;;;;;;12935141;23;20341;-86
2021/12/12 06:43:31;;;;;;;4.30;1.70;;;;;;;;;;12920127;23;20000;-86
2021/12/12 06:48:33;;;;;;;5.03;2.15;;;;;;;;;;12917519;23;20000;-88
2021/12/12 06:53:37;;;;;;;3.65;1.80;;;;;;;;;;12911442;23;20008;-87
2021/12/12 06:58:38;;;;;;;4.32;2.40;;;;;;;;;;12910634;23;20011;-87
2021/12/12 07:03:39;;;;;;;3.13;1.58;;;;;;;;;;12921751;23;20068;-87
2021/12/12 07:08:40;;;;;;;;;;;;;;;;;;12918874;23;20008;-88
2021/12/12 07:13:41;;;;;;;3.22;1.70;;;;;;;;;;12909184;23;19908;-86
2021/12/12 07:18:43;;;;;;;3.65;1.95;;;;;;;;;;12927097;23;20012;-86
2021/12/12 07:23:45;;;;;;;3.45;1.70;;;;;;;;;;12939348;23;20015;-87
2021/12/12 07:28:47;;;;;;;3.35;1.60;;;;;;;;;;12949835;23;20005;-85
2021/12/12 07:33:49;;;;;;;1.90;1.17;;;;;;;;;;12948980;23;20004;-86
2021/12/12 07:39:11;;;;;;;4.50;2.30;;;;;;;;;;12950730;23;20042;-87
2021/12/12 07:44:14;;;;;;;2.97;1.30;;;;;;;;;;12922648;23;20000;-86
2021/12/12 07:49:18;;;;;;;3.45;1.83;;;;;;;;;;12854806;23;20096;-87
2021/12/12 07:54:19;;;;;;;2.47;1.60;;;;;;;;;;12877791;23;20088;-85
2021/12/12 07:59:20;;;;;;;2.85;1.63;;;;;;;;;;12853228;23;20036;-85
2021/12/12 08:04:26;;;;;;;2.75;1.65;;;;;;;;;;12869827;23;20021;-86
2021/12/12 08:09:27;;;;;;;3.22;1.08;;;;;;;;;;12892326;23;20030;-86
2021/12/12 08:14:29;;;;;;;3.13;2.05;;;;;;;;;;12906253;23;20042;-85
2021/12/12 08:19:29;;;;;;;;;;;;;;;;;;12912963;23;20004;-86
2021/12/12 08:24:31;;;;;;;1.75;0.88;;;;;;;;;;12908486;23;19899;-86
2021/12/12 08:29:33;;;;;;;2.42;1.60;;;;;;;;;;12907796;23;20000;-85
2021/12/12 08:34:34;;;;;;;2.00;1.30;;;;;;;;;;12905892;23;20007;-85
2021/12/12 08:39:36;;;;;;;1.80;1.25;;;;;;;;;;12904769;23;20012;-86
2021/12/12 08:44:38;;;;;;;1.65;1.15;;;;;;;;;;12931799;23;20049;-86
2021/12/12 08:49:40;;;;;;;3.55;1.45;;;;;;;;;;12904498;23;20063;-85
2021/12/12 08:54:43;;;;;;;2.58;1.63;;;;;;;;;;12905378;23;20004;-86
2021/12/12 08:59:46;;;;;;;2.95;1.80;;;;;;;;;;12910425;23;20079;-85
2021/12/12 09:04:56;;;;;;;2.42;1.65;;;;;;;;;;12907160;23;20015;-85
2021/12/12 09:10:20;;;;;;;3.63;1.27;;;;;;;;;;12882978;23;20004;-85
2021/12/12 09:15:24;;;;;;;3.28;1.80;;;;;;;;;;12907067;22;20008;-85
2021/12/12 09:20:46;;;;;;;2.03;1.00;;;;;;;;;;12909182;23;20012;-85
2021/12/12 09:25:54;;;;;;;2.45;1.58;;;;;;;;;;12932152;22;20000;-85
2021/12/12 09:30:56;;;;;;;1.25;1.15;;;;;;;;;;12905143;23;20015;-85
2021/12/12 09:36:07;;;;;;;1.77;1.40;;;;;;;;;;12904824;22;20004;-85
2021/12/12 09:41:08;;;;;;;;;;;;;;;;;;12906614;23;20004;-86
2021/12/12 09:46:40;;;;;;;2.83;1.60;;;;;;;;;;12931645;22;19986;-85
2021/12/12 09:52:01;;;;;;;1.52;1.00;;;;;;;;;;12928452;23;20003;-86
2021/12/12 09:57:11;;;;;;;2.85;1.75;;;;;;;;;;12927915;22;20028;-85
2021/12/12 10:02:18;;;;;;;2.60;1.73;;;;;;;;;;12907337;23;20004;-85
2021/12/12 10:07:31;;;;;;;1.40;1.10;;;;;;;;;;12933189;22;20324;-85
2021/12/12 10:12:38;;;;;;;2.47;1.65;;;;;;;;;;12906505;23;20008;-86
2021/12/12 10:17:53;;;;;;;2.28;1.73;;;;;;;;;;12906917;22;20008;-86
2021/12/12 10:23:01;;;;;;;1.40;0.93;;;;;;;;;;12902337;23;20328;-86
2021/12/12 10:28:11;;;;;;;2.08;1.13;;;;;;;;;;12903736;22;20444;-86
2021/12/12 10:33:12;;;;;;;2.08;1.27;;;;;;;;;;12905678;23;20036;-85
2021/12/12 10:38:33;;;;;;;3.17;1.77;;;;;;;;;;12902937;22;20011;-85
2021/12/12 10:48:58;;;;;;;3.63;2.40;;;;;;;;;;12930931;22;20247;-86
2021/12/12 10:53:59;;;;;;;2.85;1.80;;;;;;;;;;12904955;23;20010;-86
2021/12/12 10:59:02;;;;;;;3.10;1.90;;;;;;;;;;12902944;23;20115;-86
2021/12/12 11:04:11;;;;;;;2.63;1.83;;;;;;;;;;12902191;23;20008;-86
2021/12/12 11:09:30;;;;;;;2.72;2.40;;;;;;;;;;12903819;23;20055;-86
2021/12/12 11:14:36;;;;;;;3.45;2.45;;;;;;;;;;12902568;23;20026;-86
2021/12/12 11:19:52;;;;;;;2.35;1.45;;;;;;;;;;12908751;23;20354;-85
2021/12/12 11:24:58;;;;;;;5.47;2.95;;;;;;;;;;12906711;23;20395;-85
2021/12/12 11:30:01;;;;;;;3.17;2.30;;;;;;;;;;12909726;23;20023;-85
2021/12/12 11:35:05;;;;;;;2.42;1.77;;;;;;;;;;12911259;23;20050;-85
2021/12/12 11:40:11;;;;;;;2.80;1.80;;;;;;;;;;12913394;23;20134;-85
2021/12/12 11:45:18;;;;;;;4.22;2.33;;;;;;;;;;12905115;23;20336;-85
2021/12/12 11:50:41;;;;;;;2.20;1.52;;;;;;;;;;12906553;23;20424;-86
2021/12/12 11:55:55;;;;;;;1.95;1.30;;;;;;;;;;12915211;22;20027;-85
2021/12/12 12:01:02;;;;;;;1.60;1.40;;;;;;;;;;12907403;23;20035;-85
2021/12/12 12:06:13;;;;;;;2.30;1.60;;;;;;;;;;12914207;22;20440;-85
2021/12/12 12:11:35;;;;;;;2.20;1.70;;;;;;;;;;12935651;23;20079;-86
2021/12/12 12:16:53;;;;;;;1.67;1.10;;;;;;;;;;12914253;22;20028;-86
2021/12/12 12:22:05;;;;;;;1.88;1.50;;;;;;;;;;12905415;23;20000;-86
2021/12/12 12:27:17;;;;;;;2.60;1.85;;;;;;;;;;12902822;22;20042;-86
2021/12/12 12:32:37;;;;;;;1.85;1.20;;;;;;;;;;12905641;23;20004;-87
2021/12/12 12:37:58;;;;;;;2.58;1.90;;;;;;;;;;12902736;22;20321;-87
2021/12/12 12:43:18;;;;;;;1.77;1.58;;;;;;;;;;12917968;23;20027;-87
2021/12/12 12:48:38;;;;;;;2.05;1.35;;;;;;;;;;12955225;22;20016;-86
2021/12/12 12:53:39;;;;;;;2.38;1.50;;;;;;;;;;12918207;23;20440;-86
2021/12/12 12:58:55;;;;;;;3.60;1.70;;;;;;;;;;12903772;23;20011;-86
2021/12/12 13:04:08;;;;;;;3.35;2.17;;;;;;;;;;12904636;23;20004;-86
2021/12/12 13:09:35;;;;;;;1.63;1.00;;;;;;;;;;12930736;22;20049;-86
2021/12/12 13:14:57;;;;;;;2.20;1.25;;;;;;;;;;12903221;23;20023;-86
2021/12/12 13:20:07;;;;;;;1.40;1.00;;;;;;;;;;12902504;23;20011;-87
2021/12/12 13:25:16;;;;;;;2.65;1.50;;;;;;;;;;12902493;23;20004;-86
2021/12/12 13:30:27;;;;;;;2.33;1.75;;;;;;;;;;12903282;23;20008;-87
2021/12/12 13:35:47;;;;;;;1.80;1.13;;;;;;;;;;12903989;22;20447;-86
2021/12/12 13:40:53;;;;;;;1.90;1.45;;;;;;;;;;12909619;23;20007;-87
2021/12/12 13:46:11;;;;;;;1.90;1.40;;;;;;;;;;12929519;22;20022;-86
2021/12/12 13:51:35;;;;;;;2.22;1.70;;;;;;;;;;12902792;23;20004;-87
2021/12/12 13:56:40;;;;;;;2.72;1.75;;;;;;;;;;12903469;22;20016;-87
2021/12/12 14:01:52;;;;;;;2.92;2.13;;;;;;;;;;12916152;23;20007;-88
2021/12/12 14:06:54;;;;;;;1.23;0.90;;;;;;;;;;12943975;22;19997;-87
2021/12/12 14:11:59;;;;;;;1.88;1.65;;;;;;;;;;12916497;23;20072;-87
2021/12/12 14:17:03;;;;;;;2.20;1.80;;;;;;;;;;12942200;22;20107;-86
2021/12/12 14:22:05;;;;;;;1.90;1.00;;;;;;;;;;12943091;23;20000;-87
2021/12/12 14:27:08;;;;;;;2.40;1.80;;;;;;;;;;12933318;22;20000;-87
2021/12/12 14:32:17;;;;;;;3.20;2.50;;;;;;;;;;12959902;23;20004;-87
2021/12/12 14:37:19;;;;;;;2.53;2.05;;;;;;;;;;12919708;22;20087;-87
2021/12/12 14:42:26;;;;;;;1.90;1.50;;;;;;;;;;12923044;23;20000;-87
2021/12/12 14:47:32;;;;;;;2.42;1.45;;;;;;;;;;12917603;22;20014;-87
2021/12/12 14:52:35;;;;;;;1.85;1.42;;;;;;;;;;12918876;23;20000;-87
2021/12/12 14:57:36;;;;;;;2.22;1.58;;;;;;;;;;12918582;22;20023;-88
2021/12/12 15:02:55;;;;;;;2.28;1.20;;;;;;;;;;12916269;23;20004;-87
2021/12/12 15:07:58;;;;;;;1.90;1.60;;;;;;;;;;12921686;22;20088;-87
2021/12/12 15:13:09;;;;;;;1.38;1.13;;;;;;;;;;12924231;23;20035;-88
2021/12/12 15:18:14;;;;;;;2.25;1.67;;;;;;;;;;12913789;22;20076;-88
2021/12/12 15:23:18;;;;;;;3.22;1.90;;;;;;;;;;12927685;23;20019;-87
2021/12/12 15:28:23;;;;;;;3.53;2.58;;;;;;;;;;12929931;22;20007;-88
2021/12/12 15:33:26;;;;;;;2.35;2.00;;;;;;;;;;12941861;23;19996;-86
2021/12/12 15:38:28;;;;;;;1.63;1.13;;;;;;;;;;12929765;23;20004;-87
2021/12/12 15:43:40;;;;;;;1.88;1.48;;;;;;;;;;12929142;23;20004;-87
2021/12/12 15:48:43;;;;;;;3.53;2.65;;;;;;;;;;12924104;23;20004;-87
2021/12/12 15:53:51;;;;;;;1.50;1.30;;;;;;;;;;12923727;23;20031;-86
2021/12/12 15:58:54;;;;;;;1.70;1.30;;;;;;;;;;12924264;23;20008;-85
2021/12/12 16:03:57;;;;;;;2.28;1.75;;;;;;;;;;12923410;23;20436;-85
2021/12/12 16:08:59;;;;;;;1.35;1.02;;;;;;;;;;12926684;23;20079;-86
2021/12/12 16:14:03;;;;;;;2.00;1.63;;;;;;;;;;12926279;23;20008;-85
2021/12/12 16:19:07;;;;;;;2.03;1.63;;;;;;;;;;12928809;23;20012;-86
2021/12/12 16:24:13;;;;;;;1.95;1.70;;;;;;;;;;12936761;23;20007;-87
2021/12/12 16:29:17;;;;;;;2.67;1.75;;;;;;;;;;12930295;23;20077;-86
2021/12/12 16:34:20;;;;;;;3.45;2.95;;;;;;;;;;12925635;23;20028;-87
2021/12/12 16:39:24;;;;;;;3.38;1.98;;;;;;;;;;12926624;23;20004;-87
2021/12/12 16:44:34;;;;;;;2.53;2.33;;;;;;;;;;12925117;23;20046;-87
2021/12/12 16:49:38;;;;;;;3.70;3.23;;;;;;;;;;12927000;23;20008;-86
2021/12/12 16:54:41;;;;;;;5.47;4.53;;;;;;;;;;12923544;23;20036;-87
2021/12/12 16:59:45;;;;;;;3.42;2.67;;;;;;;;;;12926733;23;20012;-87
2021/12/12 17:04:49;;;;;;;3.42;3.00;;;;;;;;;;12928895;23;20023;-87
2021/12/12 17:09:52;;;;;;;2.50;1.75;;;;;;;;;;12956517;22;20385;-87
2021/12/12 17:14:56;;;;;;;3.25;2.67;;;;;;;;;;12935743;23;20009;-87
2021/12/12 17:20:07;;;;;;;3.95;3.55;;;;;;;;;;12937060;23;20004;-87
2021/12/12 17:25:08;;;;;;;;;;;;;;;;;;12937543;23;20026;-87
2021/12/12 17:30:11;;;;;;;3.13;2.83;;;;;;;;;;12933044;23;19899;-87
2021/12/12 17:35:13;;;;;;;3.33;3.00;;;;;;;;;;12934641;23;20011;-87
2021/12/12 17:40:20;;;;;;;3.35;2.70;;;;;;;;;;12933656;23;20011;-87
2021/12/12 17:45:40;;;;;;;4.90;4.40;;;;;;;;;;12933436;23;19996;-86
2021/12/12 17:51:00;;;;;;;4.40;3.90;;;;;;;;;;12930575;23;20439;-87
2021/12/12 17:56:23;;;;;;;3.72;3.13;;;;;;;;;;12955732;22;20011;-86
2021/12/12 18:01:37;;;;;;;3.83;3.42;;;;;;;;;;12938615;23;20007;-87
2021/12/12 18:06:40;;;;;;;4.07;3.70;;;;;;;;;;12940151;22;20063;-87
2021/12/12 18:11:53;;;;;;;4.32;3.92;;;;;;;;;;12930637;23;20091;-87
2021/12/12 18:17:11;;;;;;;4.85;4.30;;;;;;;;;;12930585;22;20012;-86
2021/12/12 18:22:20;;;;;;;4.07;3.67;;;;;;;;;;12930138;23;20000;-86
2021/12/12 18:27:26;;;;;;;5.93;5.18;;;;;;;;;;12923376;22;20429;-86
2021/12/12 18:32:30;;;;;;;5.70;4.72;;;;;;;;;;12952829;23;20007;-86
2021/12/12 18:37:33;;;;;;;2.97;2.40;;;;;;;;;;12926945;22;20012;-86
2021/12/12 18:42:38;;;;;;;7.03;6.32;;;;;;;;;;12928131;23;20000;-86
2021/12/12 18:47:41;;;;;;;8.10;7.07;;;;;;;;;;12921653;22;20448;-87
2021/12/12 18:52:47;;;;;;;10.95;9.85;;;;;;;;;;12916554;23;19996;-87
2021/12/12 18:57:53;;;;;;;3.58;3.15;;;;;;;;;;12927385;22;20019;-86
2021/12/12 19:03:02;;;;;;;3.55;3.10;;;;;;;;;;12950396;23;19999;-86
2021/12/12 19:08:12;;;;;;;4.30;3.90;;;;;;;;;;12924626;22;20000;-86
2021/12/12 19:13:13;;;;;;;5.67;5.10;;;;;;;;;;12925170;23;20008;-86
2021/12/12 19:18:16;;;;;;;7.53;6.68;;;;;;;;;;12924658;22;20020;-86
2021/12/12 19:23:17;;;;;;;10.60;9.50;;;;;;;;;;12924813;23;20004;-86
2021/12/12 19:28:33;;;;;;;5.70;4.95;;;;;;;;;;12924083;22;20012;-86
2021/12/12 19:33:35;;;;;;;8.35;6.90;;;;;;;;;;12923657;23;20003;-86
2021/12/12 19:38:39;;;;;;;11.48;10.20;;;;;;;;;;12925005;23;20095;-86
2021/12/12 19:43:44;;;;;;;12.63;11.32;;;;;;;;;;12929624;23;20027;-86
2021/12/12 19:48:48;;;;;;;9.07;7.18;;;;;;;;;;12928062;23;20031;-86
2021/12/12 19:54:04;;;;;;;9.20;7.50;;;;;;;;;;12932367;23;20008;-86
2021/12/12 19:59:05;;;;;;;10.57;7.95;;;;;;;;;;12913164;23;20070;-85
2021/12/12 20:04:18;;;;;;;8.52;6.82;;;;;;;;;;12903719;23;20335;-85
2021/12/12 20:09:40;;;;;;;6.55;5.07;;;;;;;;;;12904519;23;20011;-85
2021/12/12 20:14:45;;;;;;;9.35;7.07;;;;;;;;;;12905387;23;20084;-85
2021/12/12 20:20:06;;;;;;;6.38;5.20;;;;;;;;;;12931480;22;20054;-86
2021/12/12 20:25:19;;;;;;;13.75;9.60;;;;;;;;;;12903014;23;20004;-85
2021/12/12 20:30:23;;;;;;;10.38;7.32;;;;;;;;;;12904157;23;20093;-85
2021/12/12 20:35:36;;;;;;;14.57;12.60;;;;;;;;;;12905602;22;20456;-85
2021/12/12 20:40:40;;;;;;;11.70;9.45;;;;;;;;;;12905718;23;20008;-85
2021/12/12 20:45:48;;;;;;;13.75;10.20;;;;;;;;;;12905058;22;20038;-86
2021/12/12 20:51:12;;;;;;;12.68;9.07;;;;;;;;;;12906191;23;20459;-85
2021/12/12 20:56:16;;;;;;;14.23;11.10;;;;;;;;;;12907917;22;20008;-85
2021/12/12 21:01:18;;;;;;;16.27;11.63;;;;;;;;;;12904115;23;20416;-85
2021/12/12 21:06:24;;;;;;;18.58;14.40;;;;;;;;;;12904058;22;20332;-85
2021/12/12 21:11:29;;;;;;;13.15;8.85;;;;;;;;;;12905953;23;20008;-85
